Time;durP1;ratioP1;P1;durP2;ratioP2;P2;SDS_P1;SDS_P2;PMS_P1;PMS_P2;Temp;Humidity;BMP_temperature;BMP_pressure;BME280_temperature;BME280_humidity;BME280_pressure;Samples;Min_cycle;Max_cycle;Signal;HPM_P1;HPM_P2
2021/11/15 00:00:54;;;;;;;20.30;12.33;;;17.40;57.80;;;;;;10374568;28;20209;-65
2021/11/15 00:06:17;;;;;;;22.77;12.97;;;17.40;58.00;;;;;;10397782;28;20229;-64
2021/11/15 00:11:40;;;;;;;22.63;12.97;;;17.40;57.90;;;;;;10406051;28;20569;-64
2021/11/15 00:17:03;;;;;;;19.10;11.73;;;17.40;57.80;;;;;;10414234;28;20217;-64
2021/11/15 00:22:25;;;;;;;16.67;11.00;;;17.40;57.70;;;;;;10410445;28;20225;-64
2021/11/15 00:27:48;;;;;;;18.70;11.40;;;17.40;57.80;;;;;;10373970;28;20701;-64
2021/11/15 00:33:10;;;;;;;18.30;11.10;;;17.40;58.00;;;;;;10372963;28;20194;-63
2021/11/15 00:38:32;;;;;;;20.00;11.70;;;17.40;58.20;;;;;;10372477;28;20225;-64
2021/11/15 00:43:56;;;;;;;20.00;12.27;;;17.30;58.20;;;;;;10381699;28;20215;-64
2021/11/15 00:49:18;;;;;;;20.63;13.30;;;17.30;58.20;;;;;;10371629;28;20589;-63
2021/11/15 00:54:40;;;;;;;22.23;13.77;;;17.40;57.80;;;;;;10372632;28;20195;-64
2021/11/15 01:00:07;;;;;;;26.60;15.07;;;17.40;57.50;;;;;;10371389;28;20229;-64
2021/11/15 01:05:29;;;;;;;22.03;13.83;;;17.40;57.50;;;;;;10372033;28;20566;-63
2021/11/15 01:10:52;;;;;;;28.23;16.90;;;17.40;57.60;;;;;;10378753;28;20202;-64
2021/11/15 01:16:16;;;;;;;26.30;16.30;;;17.40;57.40;;;;;;10371165;28;20241;-64
2021/11/15 01:21:38;;;;;;;27.47;16.07;;;17.40;57.20;;;;;;10374375;28;20551;-64
2021/11/15 01:27:00;;;;;;;25.70;15.40;;;17.40;57.00;;;;;;10378614;28;20222;-64
2021/11/15 01:32:26;;;;;;;25.57;15.47;;;17.40;57.20;;;;;;10372682;28;20674;-64
2021/11/15 01:37:49;;;;;;;26.30;15.97;;;17.30;57.30;;;;;;10370568;28;20805;-64
2021/11/15 01:43:11;;;;;;;27.10;16.33;;;17.30;57.50;;;;;;10370188;28;20692;-64
2021/11/15 01:48:34;;;;;;;25.00;16.23;;;17.30;57.50;;;;;;10369665;28;20233;-63
2021/11/15 01:53:56;;;;;;;28.13;17.30;;;17.30;57.60;;;;;;10378745;28;20205;-64
2021/11/15 01:59:19;;;;;;;28.23;16.93;;;17.30;57.40;;;;;;10377086;28;20215;-64
2021/11/15 02:04:42;;;;;;;29.93;17.90;;;17.40;57.20;;;;;;10377545;28;20304;-64
2021/11/15 02:10:08;;;;;;;28.77;17.30;;;17.40;56.90;;;;;;10365990;28;20221;-64
2021/11/15 02:15:30;;;;;;;28.70;17.03;;;17.40;56.80;;;;;;10369483;28;20214;-64
2021/11/15 02:20:57;;;;;;;30.30;18.37;;;17.30;57.00;;;;;;10369319;28;20198;-64
2021/11/15 02:26:22;;;;;;;29.73;17.23;;;17.30;57.10;;;;;;10404261;28;20213;-64
2021/11/15 02:31:44;;;;;;;25.67;17.10;;;17.30;57.20;;;;;;10410040;28;20628;-65
2021/11/15 02:37:07;;;;;;;30.27;18.07;;;17.30;57.40;;;;;;10409991;28;20685;-63
2021/11/15 02:42:30;;;;;;;33.20;19.17;;;17.30;57.30;;;;;;10393921;28;20214;-64
2021/11/15 02:47:53;;;;;;;28.63;18.13;;;17.30;57.00;;;;;;10376870;28;20727;-64
2021/11/15 02:53:17;;;;;;;34.00;19.47;;;17.40;56.90;;;;;;10377875;28;20195;-64
2021/11/15 02:58:40;;;;;;;31.33;18.83;;;17.40;56.90;;;;;;10376320;28;20215;-64
2021/11/15 03:04:03;;;;;;;30.50;18.33;;;17.30;57.00;;;;;;10377316;28;20214;-64
2021/11/15 03:09:26;;;;;;;29.43;18.93;;;17.30;57.00;;;;;;10375624;28;20232;-64
2021/11/15 03:14:48;;;;;;;27.43;17.13;;;17.30;57.20;;;;;;10377340;28;20674;-64
2021/11/15 03:20:10;;;;;;;29.97;18.93;;;17.20;57.20;;;;;;10376786;28;20202;-64
2021/11/15 03:25:34;;;;;;;26.97;18.10;;;17.30;57.80;;;;;;10405182;28;20224;-64
2021/11/15 03:30:59;;;;;;;32.17;20.00;;;17.30;57.00;;;;;;10416047;28;20558;-64
2021/11/15 03:36:21;;;;;;;27.03;18.53;;;17.30;56.70;;;;;;10411042;28;20209;-64
2021/11/15 03:41:46;;;;;;;29.37;19.63;;;17.30;56.60;;;;;;10375324;28;20199;-64
2021/11/15 03:47:08;;;;;;;29.00;18.90;;;17.30;56.60;;;;;;10377745;28;20218;-64
2021/11/15 03:52:30;;;;;;;30.53;19.37;;;17.30;56.80;;;;;;10373742;28;20665;-64
2021/11/15 03:57:54;;;;;;;28.30;18.70;;;17.20;56.90;;;;;;10382759;28;20224;-64
2021/11/15 04:03:20;;;;;;;27.43;18.53;;;17.20;57.00;;;;;;10374613;28;20215;-64
2021/11/15 04:08:42;;;;;;;29.03;19.63;;;17.20;56.70;;;;;;10373857;28;20269;-64
2021/11/15 04:14:09;;;;;;;28.03;19.03;;;17.20;56.40;;;;;;10374683;28;20194;-64
2021/11/15 04:19:31;;;;;;;29.37;19.43;;;17.30;56.10;;;;;;10374445;28;20232;-64
2021/11/15 04:24:53;;;;;;;29.17;18.97;;;17.40;55.90;;;;;;10396428;28;20214;-66
2021/11/15 04:30:17;;;;;;;26.07;18.13;;;17.30;55.70;;;;;;10413808;28;20217;-66
2021/11/15 04:35:39;;;;;;;25.83;17.93;;;17.30;55.80;;;;;;10413569;28;20237;-65
2021/11/15 04:41:01;;;;;;;26.50;17.97;;;17.30;55.70;;;;;;10412992;28;20206;-64
2021/11/15 04:46:25;;;;;;;28.10;18.23;;;17.40;56.70;;;;;;10389086;28;20218;-64
2021/11/15 04:51:47;;;;;;;26.87;18.40;;;17.50;56.50;;;;;;10330259;28;20195;-65
2021/11/15 04:57:09;;;;;;;29.03;18.70;;;17.50;56.10;;;;;;10329611;28;20219;-64
2021/11/15 05:02:32;;;;;;;31.83;20.13;;;17.60;55.10;;;;;;10329016;28;20195;-64
2021/11/15 05:07:56;;;;;;;33.43;20.87;;;17.60;54.70;;;;;;10325009;28;20234;-64
2021/11/15 05:13:19;;;;;;;33.23;21.60;;;17.60;54.10;;;;;;10325001;28;20575;-64
2021/11/15 05:18:42;;;;;;;32.97;21.57;;;17.60;54.20;;;;;;10324634;28;20853;-65
2021/11/15 05:24:05;;;;;;;30.33;19.77;;;17.60;54.40;;;;;;10357895;28;20297;-64
2021/11/15 05:29:27;;;;;;;27.63;18.63;;;17.60;54.40;;;;;;10405395;28;20217;-64
2021/11/15 05:34:51;;;;;;;28.33;17.73;;;17.70;54.80;;;;;;10405774;28;20193;-65
2021/11/15 05:40:14;;;;;;;30.27;19.77;;;17.70;55.20;;;;;;10397021;28;20727;-64
2021/11/15 05:45:37;;;;;;;33.77;21.10;;;17.70;55.10;;;;;;10373495;28;20258;-64
2021/11/15 05:51:00;;;;;;;29.13;19.50;;;17.70;54.10;;;;;;10435050;22;20229;-63
2021/11/15 05:56:22;;;;;;;31.97;21.03;;;17.70;54.40;;;;;;10473133;28;20193;-63
2021/11/15 06:01:44;;;;;;;31.27;20.80;;;17.70;54.00;;;;;;10492807;28;20595;-64
2021/11/15 06:07:08;;;;;;;32.00;21.07;;;17.80;54.10;;;;;;10477376;28;20251;-63
2021/11/15 06:12:30;;;;;;;32.10;21.53;;;17.80;53.70;;;;;;10494451;28;20574;-63
2021/11/15 06:17:53;;;;;;;29.87;20.50;;;17.70;53.60;;;;;;10497643;28;20196;-63
2021/11/15 06:23:16;;;;;;;25.77;18.10;;;17.70;54.30;;;;;;10492225;28;20219;-64
2021/11/15 06:28:39;;;;;;;29.07;17.93;;;17.80;54.70;;;;;;10459264;28;20591;-63
2021/11/15 06:34:01;;;;;;;29.73;19.63;;;17.80;54.60;;;;;;10459501;28;20266;-63
2021/11/15 06:39:26;;;;;;;29.63;19.80;;;17.80;54.20;;;;;;10459313;28;20217;-63
2021/11/15 06:44:48;;;;;;;30.03;20.63;;;17.80;53.50;;;;;;10475805;28;20207;-63
2021/11/15 06:50:14;;;;;;;27.43;18.57;;;17.70;53.20;;;;;;10472044;28;20295;-64
2021/11/15 06:55:37;;;;;;;29.10;18.87;;;17.80;53.40;;;;;;10458929;28;20193;-63
2021/11/15 07:01:00;;;;;;;26.30;17.77;;;17.80;53.70;;;;;;10458808;28;20213;-63
2021/11/15 07:06:22;;;;;;;28.77;19.73;;;17.80;54.10;;;;;;10458525;28;20213;-64
2021/11/15 07:11:46;;;;;;;25.60;18.63;;;17.80;53.30;;;;;;10458244;28;20355;-63
2021/11/15 07:17:08;;;;;;;25.70;17.87;;;17.70;52.90;;;;;;10458389;28;20188;-64
2021/11/15 07:22:31;;;;;;;29.90;20.00;;;17.80;52.90;;;;;;10461648;28;20208;-63
2021/11/15 07:27:56;;;;;;;27.23;20.10;;;17.80;52.90;;;;;;10499134;28;20204;-64
2021/11/15 07:33:18;;;;;;;26.43;18.17;;;17.70;52.80;;;;;;10449163;28;20575;-65
2021/11/15 07:38:40;;;;;;;27.17;17.97;;;17.70;53.20;;;;;;10468616;28;20217;-64
2021/11/15 07:44:04;;;;;;;24.67;17.13;;;17.70;53.50;;;;;;10450396;28;20217;-64
2021/11/15 07:49:26;;;;;;;27.80;18.80;;;17.70;53.70;;;;;;10453280;28;20700;-64
2021/11/15 07:54:49;;;;;;;27.70;18.90;;;17.70;53.30;;;;;;10443277;28;20197;-64
2021/11/15 08:00:15;;;;;;;28.20;18.53;;;17.70;53.30;;;;;;10455932;28;20217;-64
2021/11/15 08:05:37;;;;;;;23.90;16.57;;;17.70;53.40;;;;;;10453339;28;20227;-64
2021/11/15 08:11:01;;;;;;;25.67;17.30;;;17.70;53.90;;;;;;10443954;28;20213;-64
2021/11/15 08:16:24;;;;;;;25.53;17.60;;;17.70;54.40;;;;;;10454931;28;20193;-64
2021/11/15 08:21:48;;;;;;;23.77;17.30;;;17.70;53.90;;;;;;10455057;28;20217;-64
2021/11/15 08:27:11;;;;;;;24.13;16.43;;;17.70;54.20;;;;;;10453410;28;20221;-64
2021/11/15 08:32:35;;;;;;;23.60;16.57;;;17.70;54.40;;;;;;10452265;28;20213;-64
2021/11/15 08:38:34;;;;;;;23.77;16.13;;;17.70;54.60;;;;;;10465066;28;20683;-64
2021/11/15 08:43:57;;;;;;;23.97;16.53;;;17.70;54.40;;;;;;10448589;28;20209;-63
2021/11/15 08:49:23;;;;;;;23.67;16.50;;;17.70;54.70;;;;;;10443915;28;20314;-64
2021/11/15 08:54:48;;;;;;;25.40;16.40;;;17.70;55.10;;;;;;10450651;28;20185;-65
2021/11/15 09:00:11;;;;;;;23.73;16.73;;;17.70;55.30;;;;;;10461483;28;20764;-64
2021/11/15 09:05:35;;;;;;;27.40;17.20;;;17.60;54.80;;;;;;10445382;28;20754;-64
2021/11/15 09:10:57;;;;;;;26.77;17.10;;;17.70;54.40;;;;;;10452745;28;20702;-65
2021/11/15 09:16:20;;;;;;;24.23;16.83;;;17.70;53.90;;;;;;10450662;28;20276;-64
2021/11/15 09:21:44;;;;;;;25.33;16.43;;;17.70;54.60;;;;;;10446709;28;20569;-64
2021/11/15 09:27:12;;;;;;;21.60;15.53;;;17.60;55.00;;;;;;10448148;28;20227;-63
2021/11/15 09:32:35;;;;;;;24.73;15.67;;;17.70;55.40;;;;;;10443780;28;20217;-63
2021/11/15 09:37:58;;;;;;;23.83;15.37;;;17.60;55.00;;;;;;10467575;28;20216;-63
2021/11/15 09:43:20;;;;;;;23.20;15.57;;;17.60;54.30;;;;;;10445505;28;20202;-64
2021/11/15 09:48:46;;;;;;;23.13;15.83;;;17.70;54.70;;;;;;10444258;28;20233;-64
2021/11/15 09:54:11;;;;;;;26.57;16.70;;;17.70;54.00;;;;;;10450739;28;20201;-63
2021/11/15 09:59:33;;;;;;;24.13;16.07;;;17.70;53.80;;;;;;10450599;28;20220;-64
2021/11/15 10:04:55;;;;;;;22.97;14.97;;;17.70;54.00;;;;;;10454618;28;20217;-65
2021/11/15 10:10:41;;;;;;;20.73;14.10;;;17.70;54.30;;;;;;10450674;28;20692;-65
2021/11/15 10:16:07;;;;;;;21.57;15.03;;;17.80;54.20;;;;;;10444397;28;20200;-65
2021/11/15 10:21:32;;;;;;;22.13;14.77;;;17.70;54.30;;;;;;10448496;28;20287;-63
2021/11/15 10:26:58;;;;;;;21.53;14.20;;;17.80;54.30;;;;;;10456677;28;20217;-64
2021/11/15 10:32:28;;;;;;;19.90;14.07;;;17.80;54.50;;;;;;10447089;28;20719;-64
2021/11/15 10:37:52;;;;;;;20.60;14.53;;;17.80;55.00;;;;;;10465300;28;20189;-65
2021/11/15 10:43:16;;;;;;;21.17;14.50;;;17.80;54.80;;;;;;10449877;28;20209;-64
2021/11/15 10:48:46;;;;;;;21.13;15.17;;;17.80;54.50;;;;;;10438766;28;20228;-65
2021/11/15 10:54:28;;;;;;;20.53;14.43;;;17.80;54.20;;;;;;10446442;28;20232;-65
2021/11/15 11:00:40;;;;;;;19.53;13.57;;;17.90;54.70;;;;;;10447105;28;20220;-64
2021/11/15 11:06:07;;;;;;;21.93;15.77;;;17.90;54.50;;;;;;10384903;28;20216;-64
2021/11/15 11:11:31;;;;;;;21.13;15.40;;;17.90;54.20;;;;;;10456948;28;20209;-64
2021/11/15 11:16:53;;;;;;;19.53;14.00;;;17.90;54.00;;;;;;10457671;28;20263;-64
2021/11/15 11:27:56;;;;;;;19.27;13.20;;;17.80;55.10;;;;;;10452752;28;20257;-64
2021/11/15 11:33:19;;;;;;;17.77;13.37;;;17.80;55.20;;;;;;10455979;28;20694;-64
2021/11/15 11:38:44;;;;;;;18.83;12.83;;;17.80;54.00;;;;;;10477043;28;20587;-65
2021/11/15 11:44:09;;;;;;;17.40;13.07;;;17.80;54.70;;;;;;10454153;28;20201;-64
2021/11/15 11:49:32;;;;;;;17.27;12.03;;;17.80;55.30;;;;;;10544181;22;20230;-67
2021/11/15 11:54:56;;;;;;;20.73;14.33;;;17.80;55.20;;;;;;10355945;28;20209;-68
2021/11/15 12:00:19;;;;;;;18.47;13.43;;;17.80;53.20;;;;;;10373368;28;20233;-68
2021/11/15 12:05:41;;;;;;;19.87;14.23;;;17.80;53.20;;;;;;10372404;28;20307;-68
2021/11/15 12:11:23;;;;;;;19.67;14.23;;;17.80;53.30;;;;;;10371253;28;20222;-68
2021/11/15 12:16:56;;;;;;;21.60;14.67;;;17.80;53.10;;;;;;10372572;28;20205;-68
2021/11/15 12:22:21;;;;;;;19.53;14.20;;;17.80;53.40;;;;;;10372982;28;20226;-68
2021/11/15 12:27:47;;;;;;;20.27;14.20;;;17.70;53.70;;;;;;10374841;28;20614;-68
2021/11/15 12:33:23;;;;;;;18.53;13.23;;;17.70;54.00;;;;;;10377132;28;20222;-68
2021/11/15 12:38:48;;;;;;;20.80;15.07;;;17.70;54.20;;;;;;10378826;28;20218;-68
2021/11/15 12:44:33;;;;;;;19.57;13.70;;;17.60;54.50;;;;;;10372148;28;20225;-68
2021/11/15 12:49:56;;;;;;;17.27;13.83;;;17.60;54.30;;;;;;10369963;28;20717;-64
2021/11/15 12:55:18;;;;;;;20.73;14.50;;;17.70;54.40;;;;;;10367196;28;20199;-65
2021/11/15 13:00:42;;;;;;;17.90;14.00;;;17.70;54.30;;;;;;10371600;28;20636;-65
2021/11/15 13:06:07;;;;;;;19.53;13.50;;;17.80;54.30;;;;;;10371109;28;20218;-65
2021/11/15 13:11:29;;;;;;;19.27;13.40;;;17.90;55.70;;;;;;10370346;28;20301;-65
2021/11/15 13:16:52;;;;;;;17.20;12.23;;;17.90;56.10;;;;;;10369259;28;20582;-65
2021/11/15 13:22:16;;;;;;;20.40;15.00;;;17.90;56.10;;;;;;10366597;28;20230;-62
2021/11/15 13:27:38;;;;;;;19.93;14.00;;;17.90;54.80;;;;;;10369413;28;20219;-61
2021/11/15 13:33:03;;;;;;;20.60;14.47;;;18.00;53.90;;;;;;10367576;28;20230;-62
2021/11/15 13:38:26;;;;;;;21.97;15.30;;;18.00;53.60;;;;;;10365433;28;20213;-60
2021/11/15 13:43:48;;;;;;;19.57;14.40;;;18.00;54.10;;;;;;10363105;28;20198;-59
2021/11/15 13:49:12;;;;;;;21.23;15.47;;;18.00;53.30;;;;;;10353362;28;20222;-61
2021/11/15 13:54:36;;;;;;;23.27;15.63;;;18.00;53.20;;;;;;10359159;28;20282;-61
2021/11/15 13:59:59;;;;;;;20.07;14.93;;;18.00;53.40;;;;;;10363140;28;20218;-61
2021/11/15 14:05:22;;;;;;;18.37;14.47;;;18.00;53.70;;;;;;10355549;28;20697;-60
2021/11/15 14:10:45;;;;;;;22.67;16.17;;;18.00;53.70;;;;;;10358734;28;20264;-60
2021/11/15 14:16:07;;;;;;;18.67;13.93;;;17.90;54.10;;;;;;10362622;28;20267;-61
2021/11/15 14:21:31;;;;;;;20.47;14.20;;;17.90;54.30;;;;;;10354550;28;20225;-61
2021/11/15 14:26:54;;;;;;;17.37;13.43;;;17.90;54.90;;;;;;10362166;28;20214;-60
2021/11/15 14:32:16;;;;;;;19.20;13.93;;;18.00;55.50;;;;;;10365938;28;20922;-61
2021/11/15 14:37:40;;;;;;;20.20;14.67;;;18.00;54.30;;;;;;10359990;28;20225;-66
2021/11/15 14:43:02;;;;;;;19.93;15.13;;;18.00;53.70;;;;;;10375306;28;20223;-66
2021/11/15 14:48:26;;;;;;;21.03;16.03;;;18.00;53.70;;;;;;10375358;28;20210;-65
2021/11/15 14:53:50;;;;;;;23.27;15.60;;;18.00;53.50;;;;;;10371960;28;20198;-67
2021/11/15 14:59:12;;;;;;;19.37;14.27;;;17.90;53.80;;;;;;10372284;28;20219;-67
2021/11/15 15:04:34;;;;;;;18.20;12.80;;;17.90;54.50;;;;;;10366172;28;20194;-67
2021/11/15 15:09:59;;;;;;;17.60;13.70;;;17.90;54.60;;;;;;10375306;28;20747;-66
2021/11/15 15:15:23;;;;;;;17.80;13.37;;;18.00;55.20;;;;;;10375234;28;20270;-65
2021/11/15 15:20:45;;;;;;;19.13;14.03;;;17.90;55.50;;;;;;10367917;28;20231;-67
2021/11/15 15:26:09;;;;;;;17.70;13.70;;;17.90;55.20;;;;;;10372642;28;20222;-66
2021/11/15 15:31:31;;;;;;;17.57;12.87;;;17.90;55.60;;;;;;10373451;28;20210;-67
2021/11/15 15:36:55;;;;;;;18.57;14.27;;;17.90;56.10;;;;;;10373311;28;20688;-67
2021/11/15 15:42:19;;;;;;;18.87;13.83;;;17.90;55.40;;;;;;10371994;28;20720;-67
2021/11/15 15:47:43;;;;;;;24.20;16.43;;;17.90;55.30;;;;;;10371068;28;20221;-67
2021/11/15 15:53:05;;;;;;;22.87;16.27;;;18.00;54.40;;;;;;10371874;28;20313;-68
2021/11/15 15:58:28;;;;;;;21.60;14.43;;;18.10;55.70;;;;;;10375121;28;20197;-68
2021/11/15 16:03:55;;;;;;;22.07;15.67;;;18.20;57.90;;;;;;10374735;28;20666;-67
2021/11/15 16:09:33;;;;;;;22.87;16.43;;;18.30;55.70;;;;;;10373900;28;20218;-66
2021/11/15 16:20:37;;;;;;;25.80;17.47;;;18.20;54.10;;;;;;10374401;28;20229;-67
2021/11/15 16:25:59;;;;;;;22.87;16.10;;;18.20;53.90;;;;;;10373300;28;20589;-67
2021/11/15 16:31:22;;;;;;;22.90;15.73;;;18.10;54.20;;;;;;10373946;28;20246;-68
2021/11/15 16:36:45;;;;;;;23.17;16.23;;;18.10;54.40;;;;;;10373676;28;20194;-67
2021/11/15 16:42:08;;;;;;;23.53;16.03;;;18.00;54.40;;;;;;10364707;28;20232;-67
2021/11/15 16:47:31;;;;;;;22.70;16.50;;;18.00;54.50;;;;;;10368190;28;20226;-67
2021/11/15 16:52:54;;;;;;;20.67;15.23;;;18.00;54.80;;;;;;10371816;28;20233;-66
2021/11/15 16:58:19;;;;;;;21.70;15.77;;;18.00;54.80;;;;;;10373207;28;20206;-67
2021/11/15 17:03:42;;;;;;;21.10;15.00;;;18.00;54.60;;;;;;10370436;28;20286;-67
2021/11/15 17:09:06;;;;;;;23.07;14.87;;;18.00;54.80;;;;;;10370579;28;20226;-67
2021/11/15 17:14:28;;;;;;;20.33;14.50;;;18.00;54.60;;;;;;10366338;28;20333;-67
2021/11/15 17:19:53;;;;;;;19.57;13.93;;;18.00;55.10;;;;;;10367832;28;20380;-67
2021/11/15 17:25:15;;;;;;;17.13;13.23;;;18.10;54.70;;;;;;10370279;28;20712;-67
2021/11/15 17:30:37;;;;;;;20.10;13.97;;;18.10;55.30;;;;;;10366130;28;20668;-66
2021/11/15 17:36:02;;;;;;;18.70;13.70;;;18.10;54.70;;;;;;10369608;28;20201;-67
2021/11/15 17:41:25;;;;;;;19.63;13.70;;;18.10;53.70;;;;;;10369673;28;20230;-67
2021/11/15 17:46:55;;;;;;;21.87;15.57;;;18.10;53.50;;;;;;10370113;28;20218;-67
2021/11/15 17:52:21;;;;;;;17.97;13.07;;;18.10;53.20;;;;;;10420918;23;20740;-67
2021/11/15 17:57:47;;;;;;;18.17;13.97;;;18.10;53.50;;;;;;10452348;28;20668;-67
2021/11/15 18:03:10;;;;;;;19.07;13.37;;;18.00;53.40;;;;;;10417707;28;20218;-66
2021/11/15 18:08:33;;;;;;;20.27;14.07;;;18.10;53.60;;;;;;10406496;28;20759;-67
2021/11/15 18:14:02;;;;;;;20.73;14.17;;;18.00;53.90;;;;;;10405105;28;20218;-66
2021/11/15 18:19:25;;;;;;;18.37;13.33;;;18.10;53.90;;;;;;10410319;28;20200;-67
2021/11/15 18:24:49;;;;;;;19.10;13.37;;;18.00;53.60;;;;;;10410158;28;20848;-68
2021/11/15 18:30:13;;;;;;;15.83;12.40;;;18.00;54.20;;;;;;10410624;28;20236;-66
2021/11/15 18:35:35;;;;;;;15.63;11.70;;;18.00;55.40;;;;;;10410486;28;20197;-66
2021/11/15 18:40:59;;;;;;;18.80;12.50;;;18.00;55.70;;;;;;10410950;28;20749;-68
2021/11/15 18:46:22;;;;;;;17.60;13.33;;;18.10;54.30;;;;;;10405028;28;20216;-67
2021/11/15 18:51:44;;;;;;;19.53;13.97;;;18.10;53.50;;;;;;10409374;28;20222;-67
2021/11/15 18:57:08;;;;;;;18.40;13.50;;;18.10;53.40;;;;;;10404319;28;20680;-67
2021/11/15 19:02:30;;;;;;;19.40;15.05;;;18.10;53.30;;;;;;10407491;28;20414;-66
2021/11/15 19:07:56;;;;;;;17.57;12.23;;;18.60;52.00;;;;;;10408874;28;20228;-68
2021/11/15 19:13:25;;;;;;;19.40;13.23;;;18.30;53.50;;;;;;10408906;28;20620;-68
2021/11/15 19:18:47;;;;;;;17.80;13.40;;;18.20;53.30;;;;;;10408938;28;20198;-68
2021/11/15 19:24:11;;;;;;;19.07;12.67;;;18.10;52.80;;;;;;10409607;28;20589;-68
2021/11/15 19:29:36;;;;;;;17.67;12.97;;;18.10;53.20;;;;;;10417044;28;20216;-68
2021/11/15 19:34:59;;;;;;;18.13;13.33;;;18.10;53.00;;;;;;10416377;28;20688;-67
2021/11/15 19:40:21;;;;;;;18.83;12.53;;;18.00;53.10;;;;;;10413503;28;20291;-68
2021/11/15 19:45:45;;;;;;;18.10;13.00;;;18.00;53.30;;;;;;10413370;28;20224;-68
2021/11/15 19:51:08;;;;;;;17.37;12.60;;;18.00;53.50;;;;;;10414414;28;20233;-68
2021/11/15 19:56:30;;;;;;;16.97;12.27;;;18.00;54.40;;;;;;10415387;28;20193;-68
2021/11/15 20:01:53;;;;;;;15.97;11.77;;;18.00;53.50;;;;;;10416154;28;20689;-68
2021/11/15 20:07:16;;;;;;;14.60;10.73;;;18.00;53.20;;;;;;10416469;28;20232;-68
2021/11/15 20:12:38;;;;;;;14.03;10.83;;;18.00;53.20;;;;;;10426592;28;20213;-68
2021/11/15 20:18:02;;;;;;;15.23;11.13;;;18.00;53.90;;;;;;10433996;28;20561;-68
2021/11/15 20:23:24;;;;;;;13.03;10.10;;;18.00;53.30;;;;;;10431517;28;20228;-68
2021/11/15 20:28:46;;;;;;;12.97;9.77;;;18.00;54.10;;;;;;10411356;28;20221;-68
2021/11/15 20:34:10;;;;;;;15.47;10.43;;;17.90;54.20;;;;;;10415362;28;20228;-68
2021/11/15 20:39:33;;;;;;;14.07;10.40;;;18.00;53.00;;;;;;10417007;28;20205;-66
2021/11/15 20:44:58;;;;;;;13.57;9.33;;;18.00;52.70;;;;;;10415312;28;20566;-67
2021/11/15 20:50:22;;;;;;;14.37;10.63;;;18.00;52.80;;;;;;10414945;28;20225;-67
2021/11/15 20:55:46;;;;;;;14.80;10.33;;;18.00;52.80;;;;;;10414442;28;20202;-67
2021/11/15 21:01:08;;;;;;;11.97;9.50;;;18.00;52.60;;;;;;10413272;28;20228;-68
2021/11/15 21:06:32;;;;;;;12.13;9.27;;;18.00;52.50;;;;;;10413265;28;20727;-67
2021/11/15 21:11:54;;;;;;;12.90;9.93;;;17.90;52.80;;;;;;10412236;28;20341;-68
2021/11/15 21:17:16;;;;;;;14.07;9.97;;;17.90;52.70;;;;;;10412566;28;20225;-68
2021/11/15 21:22:43;;;;;;;13.60;9.37;;;18.00;52.70;;;;;;10412868;28;20720;-67
2021/11/15 21:28:06;;;;;;;13.30;9.50;;;17.90;52.50;;;;;;10412363;28;20249;-67
2021/11/15 21:33:28;;;;;;;12.27;8.97;;;18.00;52.80;;;;;;10411670;28;20715;-68
2021/11/15 21:38:52;;;;;;;12.53;9.13;;;17.90;53.70;;;;;;10412174;28;20551;-68
2021/11/15 21:44:14;;;;;;;11.53;8.67;;;17.90;53.70;;;;;;10411385;28;20217;-68
2021/11/15 21:49:37;;;;;;;12.67;9.33;;;18.00;52.50;;;;;;10409947;28;20218;-68
2021/11/15 21:55:00;;;;;;;12.03;8.20;;;17.90;52.20;;;;;;10411621;28;20210;-67
2021/11/15 22:00:26;;;;;;;11.13;8.60;;;17.90;52.40;;;;;;10412075;28;20217;-68
2021/11/15 22:05:48;;;;;;;11.60;8.53;;;17.80;52.80;;;;;;10410627;28;20198;-68
2021/11/15 22:11:13;;;;;;;10.23;7.80;;;17.70;53.10;;;;;;10410373;28;20237;-68
2021/11/15 22:16:35;;;;;;;11.00;7.93;;;17.70;53.40;;;;;;10411580;28;20189;-66
2021/11/15 22:21:58;;;;;;;10.87;8.10;;;17.60;53.50;;;;;;10410850;28;20226;-67
2021/11/15 22:27:22;;;;;;;10.73;7.30;;;17.50;53.80;;;;;;10409901;28;20222;-68
2021/11/15 22:32:44;;;;;;;11.37;8.23;;;17.50;53.90;;;;;;10401616;28;20589;-68
2021/11/15 22:38:06;;;;;;;10.83;8.03;;;17.50;53.90;;;;;;10410904;28;20193;-68
2021/11/15 22:43:30;;;;;;;9.87;7.07;;;17.50;54.00;;;;;;10409743;28;20601;-68
2021/11/15 22:48:54;;;;;;;10.73;7.57;;;17.50;54.10;;;;;;10409177;28;20271;-68
2021/11/15 22:54:16;;;;;;;10.83;8.60;;;17.40;54.00;;;;;;10408928;28;20597;-68
2021/11/15 22:59:39;;;;;;;9.40;7.20;;;17.50;54.00;;;;;;10412175;28;20197;-67
2021/11/15 23:05:01;;;;;;;9.23;7.50;;;17.50;53.90;;;;;;10417233;28;20229;-68
2021/11/15 23:10:23;;;;;;;9.03;7.43;;;17.40;53.90;;;;;;10417140;28;20232;-68
2021/11/15 23:15:48;;;;;;;9.10;7.17;;;17.40;54.00;;;;;;10416900;28;20206;-67
2021/11/15 23:21:11;;;;;;;9.00;7.53;;;17.50;54.00;;;;;;10415988;28;20718;-68
2021/11/15 23:26:34;;;;;;;11.40;7.37;;;17.40;54.00;;;;;;10417389;28;20221;-66
2021/11/15 23:31:57;;;;;;;10.60;8.03;;;17.40;54.00;;;;;;10416464;28;20220;-68
2021/11/15 23:37:19;;;;;;;10.07;7.90;;;17.40;54.10;;;;;;10417220;28;20194;-68
2021/11/15 23:42:42;;;;;;;9.60;7.13;;;17.40;54.00;;;;;;10416008;28;20214;-68
2021/11/15 23:48:07;;;;;;;9.60;7.37;;;17.40;54.00;;;;;;10416395;28;20214;-68
2021/11/15 23:53:29;;;;;;;11.33;8.20;;;17.40;54.10;;;;;;10428745;22;20308;-63
2021/11/15 23:58:51;;;;;;;10.63;7.97;;;17.40;54.10;;;;;;10415846;28;20189;-64
